createdAt,value
2023-05-13T00:00:41.006Z,11.04
2023-05-13T00:03:43.214Z,11.02
2023-05-13T00:06:45.280Z,11.10
2023-05-13T00:09:47.031Z,11.21
2023-05-13T00:12:48.888Z,11.27
2023-05-13T00:15:51.160Z,11.26
2023-05-13T00:18:54.180Z,11.32
2023-05-13T00:21:55.986Z,11.35
2023-05-13T00:24:57.690Z,11.40
2023-05-13T00:27:59.458Z,11.42
2023-05-13T00:31:01.415Z,11.43
2023-05-13T00:34:04.231Z,11.48
2023-05-13T00:37:06.257Z,11.34
2023-05-13T00:40:17.355Z,11.34
2023-05-13T00:43:19.118Z,11.26
2023-05-13T00:46:21.043Z,11.14
2023-05-13T00:49:22.884Z,11.15
2023-05-13T00:52:24.587Z,11.12
2023-05-13T00:55:26.773Z,11.13
2023-05-13T00:58:28.654Z,11.09
2023-05-13T01:01:34.213Z,11.01
2023-05-13T01:04:47.868Z,11.11
2023-05-13T01:07:55.682Z,11.05
2023-05-13T01:11:04.112Z,11.08
2023-05-13T01:14:14.597Z,11.07
2023-05-13T01:17:20.651Z,11.07
2023-05-13T01:20:23.832Z,11.13
2023-05-13T01:23:25.965Z,11.09
2023-05-13T01:26:28.204Z,11.14
2023-05-13T01:29:30.311Z,11.17
2023-05-13T01:32:32.151Z,11.21
2023-05-13T01:35:34.272Z,11.22
2023-05-13T01:38:37.027Z,11.21
2023-05-13T01:41:38.799Z,11.20
2023-05-13T01:44:40.574Z,11.10
2023-05-13T01:47:42.388Z,11.13
2023-05-13T01:50:44.168Z,10.90
2023-05-13T01:53:45.947Z,10.89
2023-05-13T01:56:47.744Z,10.79
2023-05-13T01:59:49.577Z,10.96
2023-05-13T02:02:51.609Z,10.95
2023-05-13T02:05:53.421Z,11.02
2023-05-13T02:08:55.149Z,11.05
2023-05-13T02:11:56.999Z,10.86
2023-05-13T02:14:58.724Z,10.89
2023-05-13T02:18:00.594Z,10.79
2023-05-13T02:21:02.451Z,10.91
2023-05-13T02:24:04.435Z,10.90
2023-05-13T02:27:07.569Z,10.78
2023-05-13T02:30:09.776Z,10.86
2023-05-13T02:33:12.507Z,10.75
2023-05-13T02:36:14.344Z,10.71
2023-05-13T02:39:16.143Z,10.68
2023-05-13T02:42:17.920Z,10.71
2023-05-13T02:45:19.711Z,10.64
2023-05-13T02:48:21.494Z,10.64
2023-05-13T02:51:23.297Z,10.60
2023-05-13T02:54:25.026Z,10.63
2023-05-13T02:57:26.720Z,10.62
2023-05-13T03:00:28.709Z,10.64
2023-05-13T03:03:30.575Z,10.59
2023-05-13T03:06:32.726Z,10.59
2023-05-13T03:09:35.188Z,10.65
2023-05-13T03:12:37.053Z,10.58
2023-05-13T03:15:38.934Z,10.58
2023-05-13T03:18:40.777Z,10.53
2023-05-13T03:21:42.635Z,10.60
2023-05-13T03:24:44.532Z,10.62
2023-05-13T03:27:46.277Z,10.50
2023-05-13T03:30:48.164Z,10.43
2023-05-13T03:33:49.834Z,10.40
2023-05-13T03:36:51.552Z,10.44
2023-05-13T03:39:53.262Z,10.43
2023-05-13T03:42:55.059Z,10.40
2023-05-13T03:45:56.841Z,10.27
2023-05-13T03:48:58.585Z,10.35
2023-05-13T03:52:00.513Z,10.39
2023-05-13T03:55:02.255Z,10.41
2023-05-13T03:58:14.794Z,10.36
2023-05-13T04:01:16.526Z,10.49
2023-05-13T04:04:18.253Z,10.44
2023-05-13T04:07:19.999Z,10.42
2023-05-13T04:10:21.898Z,10.39
2023-05-13T04:13:23.780Z,10.50
2023-05-13T04:16:25.867Z,10.51
2023-05-13T04:19:27.645Z,10.52
2023-05-13T04:22:29.479Z,10.56
2023-05-13T04:25:31.664Z,10.53
2023-05-13T04:28:34.705Z,10.56
2023-05-13T04:31:36.496Z,10.49
2023-05-13T04:34:38.311Z,10.39
2023-05-13T04:37:40.180Z,10.41
2023-05-13T04:40:43.867Z,10.52
2023-05-13T04:43:45.622Z,10.57
2023-05-13T04:46:47.535Z,10.54
2023-05-13T04:49:49.325Z,10.59
2023-05-13T04:52:51.579Z,10.55
2023-05-13T04:56:00.435Z,10.51
2023-05-13T04:59:02.205Z,10.48
2023-05-13T05:02:04.215Z,10.43
2023-05-13T05:05:06.602Z,10.43
2023-05-13T05:08:08.371Z,10.29
2023-05-13T05:11:10.653Z,10.36
2023-05-13T05:14:12.391Z,10.28
2023-05-13T05:17:14.172Z,10.29
2023-05-13T05:20:16.160Z,10.28
2023-05-13T05:23:17.935Z,10.29
2023-05-13T05:26:19.752Z,10.15
2023-05-13T05:29:21.542Z,10.17
2023-05-13T05:32:23.518Z,10.10
2023-05-13T05:35:25.350Z,9.98
2023-05-13T05:38:27.564Z,9.87
2023-05-13T05:41:29.575Z,9.91
2023-05-13T05:44:31.359Z,10.01
2023-05-13T05:47:33.184Z,10.04
2023-05-13T05:50:36.426Z,9.86
2023-05-13T05:53:40.554Z,10.05
2023-05-13T05:56:42.560Z,10.05
2023-05-13T05:59:44.353Z,9.97
2023-05-13T06:02:46.686Z,10.06
2023-05-13T06:05:48.628Z,10.31
2023-05-13T06:08:50.417Z,10.04
2023-05-13T06:11:52.211Z,10.10
2023-05-13T06:14:53.947Z,9.90
2023-05-13T06:17:56.145Z,10.02
2023-05-13T06:20:57.855Z,9.99
2023-05-13T06:23:59.719Z,9.97
2023-05-13T06:27:01.963Z,9.97
2023-05-13T06:30:04.272Z,10.15
2023-05-13T06:33:06.297Z,10.19
2023-05-13T06:36:09.446Z,10.10
2023-05-13T06:39:12.514Z,10.37
2023-05-13T06:42:14.507Z,10.41
2023-05-13T06:45:16.568Z,10.55
2023-05-13T06:48:18.412Z,10.52
2023-05-13T06:51:20.135Z,10.58
2023-05-13T06:54:21.975Z,10.39
2023-05-13T06:57:29.651Z,10.63
2023-05-13T07:00:38.710Z,10.75
2023-05-13T07:03:40.526Z,10.72
2023-05-13T07:06:42.423Z,10.56
2023-05-13T07:09:44.169Z,10.71
2023-05-13T07:12:45.918Z,10.66
2023-05-13T07:15:48.284Z,10.81
2023-05-13T07:18:51.047Z,10.76
2023-05-13T07:21:52.909Z,10.71
2023-05-13T07:24:55.174Z,10.84
2023-05-13T07:27:57.073Z,10.87
2023-05-13T07:30:59.126Z,10.77
2023-05-13T07:34:00.983Z,10.78
2023-05-13T07:37:04.533Z,10.75
2023-05-13T07:40:07.039Z,10.76
2023-05-13T07:43:09.448Z,10.76
2023-05-13T07:46:11.169Z,10.75
2023-05-13T07:49:13.305Z,10.90
2023-05-13T07:52:15.101Z,10.98
2023-05-13T07:55:16.866Z,11.01
2023-05-13T07:58:20.209Z,10.99
2023-05-13T08:01:22.053Z,11.09
2023-05-13T08:04:24.079Z,10.97
2023-05-13T08:07:25.957Z,10.96
2023-05-13T08:10:27.698Z,11.07
2023-05-13T08:13:29.471Z,11.05
2023-05-13T08:16:31.592Z,11.00
2023-05-13T08:19:33.901Z,11.10
2023-05-13T08:22:35.742Z,11.12
2023-05-13T08:25:37.616Z,11.30
2023-05-13T08:28:39.366Z,11.33
2023-05-13T08:31:42.364Z,11.23
2023-05-13T08:34:44.383Z,11.16
2023-05-13T08:37:46.115Z,11.13
2023-05-13T08:40:47.943Z,11.19
2023-05-13T08:43:52.195Z,11.20
2023-05-13T08:47:18.413Z,11.08
2023-05-13T08:50:20.537Z,11.12
2023-05-13T08:53:22.826Z,11.11
2023-05-13T08:56:28.352Z,11.11
2023-05-13T08:59:30.124Z,11.09
2023-05-13T09:02:31.923Z,11.09
2023-05-13T09:05:35.639Z,11.14
2023-05-13T09:08:38.946Z,11.23
2023-05-13T09:11:43.920Z,11.29
2023-05-13T09:14:46.403Z,11.32
2023-05-13T09:18:09.496Z,11.37
2023-05-13T09:21:25.156Z,11.54
2023-05-13T09:24:27.060Z,11.64
2023-05-13T09:27:40.565Z,11.77
2023-05-13T09:30:43.904Z,11.86
2023-05-13T09:33:53.325Z,12.11
2023-05-13T09:37:03.025Z,12.16
2023-05-13T09:40:05.473Z,12.43
2023-05-13T09:43:08.389Z,12.36
2023-05-13T09:46:10.581Z,12.21
2023-05-13T09:49:12.413Z,12.35
2023-05-13T09:52:17.152Z,12.30
2023-05-13T09:55:19.221Z,12.32
2023-05-13T09:58:22.078Z,12.47
2023-05-13T10:01:25.736Z,12.46
2023-05-13T10:04:28.121Z,12.45
2023-05-13T10:07:30.660Z,12.49
2023-05-13T10:10:35.010Z,12.53
2023-05-13T10:13:36.925Z,12.67
2023-05-13T10:16:38.767Z,12.67
2023-05-13T10:19:40.837Z,12.89
2023-05-13T10:22:43.068Z,12.92
2023-05-13T10:25:47.464Z,12.80
2023-05-13T10:28:50.205Z,12.94
2023-05-13T10:31:52.259Z,12.90
2023-05-13T10:35:07.392Z,12.98
2023-05-13T10:38:49.088Z,12.95
2023-05-13T10:42:03.959Z,13.03
2023-05-13T10:45:06.048Z,13.27
2023-05-13T10:48:08.706Z,13.31
2023-05-13T10:51:14.815Z,13.10
2023-05-13T10:54:21.442Z,13.14
2023-05-13T10:57:29.461Z,13.00
2023-05-13T11:00:31.722Z,13.16
2023-05-13T11:03:34.021Z,13.08
2023-05-13T11:06:41.157Z,12.96
2023-05-13T11:09:49.074Z,13.19
2023-05-13T11:13:35.847Z,13.47
2023-05-13T11:16:37.945Z,13.36
2023-05-13T11:19:48.983Z,13.44
2023-05-13T11:22:51.164Z,13.61
2023-05-13T11:26:16.984Z,13.70
2023-05-13T11:29:33.065Z,13.81
2023-05-13T11:32:59.225Z,13.91
2023-05-13T11:36:01.421Z,13.88
2023-05-13T11:39:07.834Z,13.92
2023-05-13T11:42:11.325Z,14.13
2023-05-13T11:45:13.731Z,13.99
2023-05-13T11:48:23.357Z,13.82
2023-05-13T11:51:28.797Z,14.17
2023-05-13T11:54:30.706Z,14.09
2023-05-13T11:57:32.855Z,13.99
2023-05-13T12:00:35.167Z,14.13
2023-05-13T12:03:37.069Z,14.09
2023-05-13T12:06:46.200Z,14.26
2023-05-13T12:09:51.389Z,14.09
2023-05-13T12:12:53.464Z,13.95
2023-05-13T12:15:55.900Z,13.89
2023-05-13T12:19:07.829Z,14.10
2023-05-13T12:22:09.805Z,13.95
2023-05-13T12:25:40.933Z,13.86
2023-05-13T12:28:42.871Z,13.86
2023-05-13T12:32:04.718Z,13.93
2023-05-13T12:35:14.264Z,13.93
2023-05-13T12:38:18.116Z,13.92
2023-05-13T12:41:22.718Z,13.92
2023-05-13T12:44:26.721Z,13.88
2023-05-13T12:47:28.634Z,13.73
2023-05-13T12:50:30.718Z,13.92
2023-05-13T12:53:32.540Z,13.83
2023-05-13T12:56:34.375Z,13.94
2023-05-13T12:59:36.154Z,14.03
2023-05-13T13:02:40.546Z,14.06
2023-05-13T13:05:42.334Z,14.11
2023-05-13T13:08:44.191Z,14.19
2023-05-13T13:11:46.669Z,14.41
2023-05-13T13:14:48.830Z,14.43
2023-05-13T13:17:50.602Z,14.46
2023-05-13T13:20:53.060Z,14.43
2023-05-13T13:23:55.070Z,14.36
2023-05-13T13:26:58.313Z,14.45
2023-05-13T13:30:00.409Z,14.42
2023-05-13T13:33:02.208Z,14.38
2023-05-13T13:36:04.161Z,14.48
2023-05-13T13:39:06.200Z,14.56
2023-05-13T13:42:07.939Z,14.50
2023-05-13T13:45:10.630Z,14.48
2023-05-13T13:48:13.414Z,14.45
2023-05-13T13:51:15.114Z,14.46
2023-05-13T13:54:16.910Z,14.51
2023-05-13T13:57:18.669Z,14.47
2023-05-13T14:00:20.889Z,14.52
2023-05-13T14:03:23.203Z,14.56
2023-05-13T14:06:25.094Z,14.64
2023-05-13T14:09:26.842Z,14.48
2023-05-13T14:12:28.579Z,14.66
2023-05-13T14:15:30.859Z,14.61
2023-05-13T14:18:32.674Z,14.64
2023-05-13T14:21:35.017Z,14.76
2023-05-13T14:24:36.748Z,14.72
2023-05-13T14:27:38.536Z,14.76
2023-05-13T14:30:40.354Z,14.69
2023-05-13T14:33:42.077Z,14.85
2023-05-13T14:36:43.929Z,14.93
2023-05-13T14:39:47.091Z,15.04
2023-05-13T14:42:50.978Z,14.90
2023-05-13T14:45:52.721Z,15.06
2023-05-13T14:48:54.577Z,15.13
2023-05-13T14:51:56.437Z,15.16
2023-05-13T14:54:58.214Z,15.18
2023-05-13T14:58:00.152Z,15.23
2023-05-13T15:01:02.005Z,15.16
2023-05-13T15:04:03.888Z,15.19
2023-05-13T15:07:07.073Z,15.32
2023-05-13T15:10:09.222Z,15.23
2023-05-13T15:13:11.059Z,15.51
2023-05-13T15:16:12.876Z,15.46
2023-05-13T15:19:14.724Z,15.41
2023-05-13T15:22:19.462Z,15.36
2023-05-13T15:25:21.234Z,15.20
2023-05-13T15:28:22.983Z,15.11
2023-05-13T15:31:24.773Z,15.13
2023-05-13T15:34:26.546Z,15.16
2023-05-13T15:37:28.340Z,15.14
2023-05-13T15:40:30.089Z,15.08
2023-05-13T15:43:32.144Z,15.10
2023-05-13T15:46:34.076Z,14.99
2023-05-13T15:49:36.420Z,14.99
2023-05-13T15:52:39.529Z,15.01
2023-05-13T15:55:41.283Z,14.99
2023-05-13T15:58:43.018Z,14.95
2023-05-13T16:01:44.897Z,14.87
2023-05-13T16:04:46.924Z,14.84
2023-05-13T16:07:48.764Z,14.90
2023-05-13T16:10:50.486Z,14.94
2023-05-13T16:13:52.494Z,14.92
2023-05-13T16:16:54.231Z,14.88
2023-05-13T16:19:56.051Z,14.92
2023-05-13T16:22:57.825Z,14.86
2023-05-13T16:25:59.630Z,14.68
2023-05-13T16:29:01.334Z,14.72
2023-05-13T16:32:03.609Z,14.71
2023-05-13T16:35:05.822Z,14.65
2023-05-13T16:38:07.544Z,14.74
2023-05-13T16:41:09.356Z,14.73
2023-05-13T16:44:11.170Z,14.70
2023-05-13T16:47:13.277Z,14.60
2023-05-13T16:50:15.147Z,14.60
2023-05-13T16:53:17.024Z,14.43
2023-05-13T16:56:18.845Z,14.41
2023-05-13T16:59:22.149Z,14.34
2023-05-13T17:02:24.000Z,14.29
2023-05-13T17:05:25.816Z,14.28
2023-05-13T17:08:27.560Z,14.14
2023-05-13T17:11:29.286Z,14.22
2023-05-13T17:14:31.234Z,14.14
2023-05-13T17:17:33.140Z,14.10
2023-05-13T17:20:35.002Z,14.01
2023-05-13T17:23:36.719Z,13.97
2023-05-13T17:26:39.178Z,13.97
2023-05-13T17:29:41.016Z,13.85
2023-05-13T17:32:43.116Z,13.93
2023-05-13T17:35:44.954Z,13.82
2023-05-13T17:38:46.697Z,13.81
2023-05-13T17:41:48.666Z,13.77
2023-05-13T17:44:50.486Z,13.76
2023-05-13T17:47:52.389Z,13.74
2023-05-13T17:50:54.538Z,13.76
2023-05-13T17:53:56.334Z,13.71
2023-05-13T17:56:58.119Z,13.76
2023-05-13T18:00:00.011Z,13.70
2023-05-13T18:03:01.973Z,13.69
2023-05-13T18:06:04.146Z,13.63
2023-05-13T18:09:06.011Z,13.57
2023-05-13T18:12:08.438Z,13.51
2023-05-13T18:15:10.514Z,13.55
2023-05-13T18:18:13.399Z,13.53
2023-05-13T18:21:15.288Z,13.38
2023-05-13T18:24:17.062Z,13.41
2023-05-13T18:27:18.832Z,13.42
2023-05-13T18:30:21.010Z,13.41
2023-05-13T18:33:22.914Z,13.45
2023-05-13T18:36:24.686Z,13.40
2023-05-13T18:39:26.490Z,13.35
2023-05-13T18:42:29.597Z,13.35
2023-05-13T18:45:31.321Z,13.33
2023-05-13T18:48:33.112Z,13.35
2023-05-13T18:51:34.923Z,13.30
2023-05-13T18:54:38.542Z,13.23
2023-05-13T18:57:40.257Z,13.22
2023-05-13T19:00:42.525Z,13.12
2023-05-13T19:03:44.462Z,13.07
2023-05-13T19:06:46.311Z,13.08
2023-05-13T19:09:48.582Z,13.06
2023-05-13T19:12:50.570Z,13.09
2023-05-13T19:15:52.554Z,13.10
2023-05-13T19:18:54.393Z,13.10
2023-05-13T19:21:56.290Z,13.09
2023-05-13T19:24:58.842Z,13.09
2023-05-13T19:28:01.653Z,13.07
2023-05-13T19:31:04.758Z,13.09
2023-05-13T19:34:07.594Z,13.11
2023-05-13T19:37:09.394Z,12.98
2023-05-13T19:40:11.209Z,13.00
2023-05-13T19:43:12.948Z,13.00
2023-05-13T19:46:14.746Z,12.92
2023-05-13T19:49:16.512Z,12.94
2023-05-13T19:52:18.298Z,12.91
2023-05-13T19:55:20.380Z,12.93
2023-05-13T19:58:22.153Z,12.84
2023-05-13T20:01:24.817Z,12.89
2023-05-13T20:04:26.722Z,12.83
2023-05-13T20:07:28.579Z,12.84
2023-05-13T20:10:30.293Z,12.84
2023-05-13T20:13:32.533Z,12.83
2023-05-13T20:16:34.581Z,12.79
2023-05-13T20:19:36.748Z,12.78
2023-05-13T20:22:38.603Z,12.73
2023-05-13T20:25:40.478Z,12.67
2023-05-13T20:28:42.286Z,12.64
2023-05-13T20:31:44.038Z,12.57
2023-05-13T20:34:45.751Z,12.40
2023-05-13T20:37:47.580Z,12.36
2023-05-13T20:40:49.310Z,12.27
2023-05-13T20:43:51.084Z,12.25
2023-05-13T20:46:52.860Z,12.10
2023-05-13T20:49:54.594Z,12.10
2023-05-13T20:52:56.389Z,12.08
2023-05-13T20:55:58.159Z,11.92
2023-05-13T20:58:59.901Z,11.89
2023-05-13T21:02:01.668Z,11.81
2023-05-13T21:05:03.645Z,11.75
2023-05-13T21:08:05.580Z,11.68
2023-05-13T21:11:07.346Z,11.64
2023-05-13T21:14:09.111Z,11.61
2023-05-13T21:17:10.842Z,11.52
2023-05-13T21:20:13.002Z,11.45
2023-05-13T21:23:14.723Z,11.29
2023-05-13T21:26:16.499Z,11.29
2023-05-13T21:29:19.001Z,11.24
2023-05-13T21:32:21.064Z,11.18
2023-05-13T21:35:22.873Z,11.13
2023-05-13T21:38:24.771Z,11.05
2023-05-13T21:41:26.598Z,10.73
2023-05-13T21:44:29.160Z,10.74
2023-05-13T21:47:30.987Z,10.61
2023-05-13T21:50:33.717Z,10.71
2023-05-13T21:53:35.632Z,10.62
2023-05-13T21:56:37.378Z,10.68
2023-05-13T21:59:39.186Z,10.69
2023-05-13T22:02:42.215Z,10.72
2023-05-13T22:05:44.278Z,10.75
2023-05-13T22:08:46.117Z,10.75
2023-05-13T22:11:47.884Z,10.74
2023-05-13T22:14:49.688Z,10.67
2023-05-13T22:17:52.056Z,10.71
2023-05-13T22:20:53.861Z,10.68
2023-05-13T22:23:55.656Z,10.64
2023-05-13T22:26:58.706Z,10.63
2023-05-13T22:30:00.612Z,10.62
2023-05-13T22:33:02.435Z,10.61
2023-05-13T22:36:04.501Z,10.64
2023-05-13T22:39:06.257Z,10.67
2023-05-13T22:42:08.029Z,10.68
2023-05-13T22:45:10.378Z,10.69
2023-05-13T22:48:12.077Z,10.65
2023-05-13T22:51:13.908Z,10.64
2023-05-13T22:54:15.689Z,10.72
2023-05-13T22:57:17.406Z,10.65
2023-05-13T23:00:19.189Z,10.62
2023-05-13T23:03:20.956Z,10.53
2023-05-13T23:06:22.653Z,10.48
2023-05-13T23:09:24.451Z,10.47
2023-05-13T23:12:26.599Z,10.53
2023-05-13T23:15:28.339Z,10.53
2023-05-13T23:18:30.099Z,10.35
2023-05-13T23:21:32.432Z,10.40
2023-05-13T23:24:34.202Z,10.44
2023-05-13T23:27:36.088Z,10.50
2023-05-13T23:30:37.882Z,10.51
2023-05-13T23:33:39.655Z,10.49
2023-05-13T23:36:41.461Z,10.45
2023-05-13T23:39:43.627Z,10.54
2023-05-13T23:42:45.432Z,10.55
2023-05-13T23:45:47.173Z,10.56
2023-05-13T23:48:48.909Z,10.55
2023-05-13T23:51:50.946Z,10.51
2023-05-13T23:54:52.739Z,10.50
2023-05-13T23:57:55.336Z,10.51
